createdAt,value
2018-12-30T00:00:42.451Z,13.13
2018-12-30T00:03:11.380Z,16.87
2018-12-30T00:05:40.328Z,10.10
2018-12-30T00:08:08.951Z,8.67
2018-12-30T00:10:37.499Z,7.50
2018-12-30T00:13:06.212Z,11.57
2018-12-30T00:15:35.972Z,12.67
2018-12-30T00:18:04.978Z,10.70
2018-12-30T00:20:34.215Z,15.47
2018-12-30T00:23:02.750Z,7.27
2018-12-30T00:25:31.326Z,9.90
2018-12-30T00:28:00.256Z,10.33
2018-12-30T00:30:28.816Z,8.33
2018-12-30T00:32:57.291Z,11.47
2018-12-30T00:35:26.113Z,8.60
2018-12-30T00:37:54.725Z,9.00
2018-12-30T00:40:23.733Z,12.67
2018-12-30T00:42:52.257Z,9.90
2018-12-30T00:45:20.871Z,11.93
2018-12-30T00:47:49.435Z,12.27
2018-12-30T00:50:18.440Z,11.90
2018-12-30T00:52:47.045Z,8.97
2018-12-30T00:55:15.586Z,8.60
2018-12-30T00:57:44.376Z,10.50
2018-12-30T01:00:13.061Z,10.50
2018-12-30T01:02:41.695Z,10.13
2018-12-30T01:05:10.553Z,11.17
2018-12-30T01:07:39.426Z,11.37
2018-12-30T01:10:09.308Z,7.90
2018-12-30T01:12:37.990Z,6.97
2018-12-30T01:15:06.784Z,7.07
2018-12-30T01:17:35.260Z,8.93
2018-12-30T01:20:04.389Z,7.27
2018-12-30T01:22:33.091Z,9.63
2018-12-30T01:25:01.636Z,8.73
2018-12-30T01:27:30.382Z,10.30
2018-12-30T01:29:58.942Z,7.80
2018-12-30T01:32:27.492Z,6.63
2018-12-30T01:34:56.814Z,8.30
2018-12-30T01:37:25.432Z,7.03
2018-12-30T01:39:53.989Z,10.67
2018-12-30T01:42:22.786Z,8.90
2018-12-30T01:44:51.330Z,7.70
2018-12-30T01:47:19.962Z,14.87
2018-12-30T01:49:48.505Z,7.17
2018-12-30T01:52:16.976Z,9.10
2018-12-30T01:54:45.880Z,8.13
2018-12-30T01:57:14.500Z,8.87
2018-12-30T01:59:43.046Z,9.10
2018-12-30T02:02:11.707Z,11.30
2018-12-30T02:04:40.315Z,9.83
2018-12-30T02:07:08.861Z,13.97
2018-12-30T02:09:37.691Z,12.37
2018-12-30T02:12:06.307Z,11.67
2018-12-30T02:14:35.213Z,12.07
2018-12-30T02:17:03.776Z,10.77
2018-12-30T02:19:32.335Z,11.13
2018-12-30T02:22:01.225Z,21.17
2018-12-30T02:24:29.841Z,12.10
2018-12-30T02:26:58.340Z,17.17
2018-12-30T02:29:26.901Z,12.40
2018-12-30T02:31:55.521Z,11.73
2018-12-30T02:34:24.186Z,9.93
2018-12-30T02:36:52.661Z,8.60
2018-12-30T02:39:21.227Z,12.33
2018-12-30T02:41:49.840Z,7.97
2018-12-30T02:44:18.435Z,7.37
2018-12-30T02:46:47.051Z,11.67
2018-12-30T02:49:15.596Z,9.03
2018-12-30T02:51:50.183Z,6.27
2018-12-30T02:54:14.686Z,7.07
2018-12-30T02:56:43.578Z,5.83
2018-12-30T02:59:12.429Z,5.50
2018-12-30T03:01:40.981Z,7.63
2018-12-30T03:04:09.527Z,6.47
2018-12-30T03:06:38.170Z,9.30
2018-12-30T03:09:07.763Z,6.27
2018-12-30T03:11:36.304Z,6.50
2018-12-30T03:14:04.959Z,12.90
2018-12-30T03:16:33.951Z,5.17
2018-12-30T03:19:02.514Z,5.33
2018-12-30T03:21:31.008Z,8.50
2018-12-30T03:23:59.542Z,4.10
2018-12-30T03:26:28.470Z,6.03
2018-12-30T03:28:57.030Z,7.07
2018-12-30T03:31:25.641Z,5.40
2018-12-30T03:33:54.626Z,7.43
2018-12-30T03:36:23.167Z,7.50
2018-12-30T03:38:51.791Z,8.10
2018-12-30T03:41:20.538Z,8.27
2018-12-30T03:43:49.110Z,8.30
2018-12-30T03:46:17.673Z,5.93
2018-12-30T03:48:46.434Z,12.70
2018-12-30T03:51:15.063Z,7.07
2018-12-30T03:53:43.613Z,8.37
2018-12-30T03:56:12.551Z,6.63
2018-12-30T03:58:41.169Z,6.80
2018-12-30T04:01:09.786Z,6.13
2018-12-30T04:03:38.559Z,8.63
2018-12-30T04:06:07.187Z,6.77
2018-12-30T04:08:35.843Z,5.33
2018-12-30T04:11:04.699Z,11.07
2018-12-30T04:13:33.245Z,5.30
2018-12-30T04:16:01.865Z,7.77
2018-12-30T04:18:30.455Z,5.90
2018-12-30T04:20:59.014Z,6.30
2018-12-30T04:23:33.807Z,7.37
2018-12-30T04:26:02.470Z,7.73
2018-12-30T04:28:31.015Z,10.57
2018-12-30T04:30:59.567Z,21.30
2018-12-30T04:33:28.394Z,7.73
2018-12-30T04:35:57.016Z,10.37
2018-12-30T04:38:25.571Z,9.80
2018-12-30T04:40:54.549Z,7.50
2018-12-30T04:43:23.109Z,13.53
2018-12-30T04:45:51.650Z,12.47
2018-12-30T04:48:20.255Z,12.03
2018-12-30T04:50:48.865Z,7.63
2018-12-30T04:53:17.424Z,11.83
2018-12-30T04:55:46.362Z,20.00
2018-12-30T04:58:14.899Z,18.87
2018-12-30T05:00:43.516Z,11.53
2018-12-30T05:03:12.419Z,12.90
2018-12-30T05:05:40.913Z,18.20
2018-12-30T05:08:09.477Z,22.00
2018-12-30T05:10:38.376Z,21.37
2018-12-30T05:13:06.923Z,16.60
2018-12-30T05:15:35.521Z,15.47
2018-12-30T05:18:04.456Z,15.23
2018-12-30T05:20:33.089Z,21.83
2018-12-30T05:23:01.651Z,15.10
2018-12-30T05:25:30.491Z,15.93
2018-12-30T05:27:59.044Z,20.67
2018-12-30T05:30:27.679Z,22.07
2018-12-30T05:32:56.509Z,19.93
2018-12-30T05:35:25.127Z,18.40
2018-12-30T05:37:53.745Z,17.60
2018-12-30T05:40:22.609Z,20.17
2018-12-30T05:42:51.160Z,22.33
2018-12-30T05:45:23.923Z,17.57
2018-12-30T05:47:52.752Z,30.27
2018-12-30T05:50:21.372Z,17.20
2018-12-30T05:52:49.929Z,19.30
2018-12-30T05:55:18.457Z,20.30
2018-12-30T05:57:47.217Z,23.00
2018-12-30T06:00:15.837Z,31.50
2018-12-30T06:02:44.768Z,26.20
2018-12-30T06:05:13.319Z,26.77
2018-12-30T06:07:41.947Z,26.43
2018-12-30T06:10:10.835Z,27.63
2018-12-30T06:12:39.386Z,28.63
2018-12-30T06:15:08.032Z,26.10
2018-12-30T06:17:36.993Z,30.40
2018-12-30T06:20:05.816Z,24.70
2018-12-30T06:22:34.383Z,29.97
2018-12-30T06:25:03.039Z,33.97
2018-12-30T06:27:31.587Z,29.83
2018-12-30T06:30:00.166Z,30.87
2018-12-30T06:32:28.702Z,28.50
2018-12-30T06:34:57.333Z,27.43
2018-12-30T06:37:25.895Z,27.10
2018-12-30T06:39:54.737Z,28.65
2018-12-30T06:42:23.348Z,18.03
2018-12-30T06:44:51.849Z,15.13
2018-12-30T06:47:21.206Z,13.83
2018-12-30T06:49:49.818Z,19.20
2018-12-30T06:52:18.374Z,18.67
2018-12-30T06:54:51.567Z,21.83
2018-12-30T06:57:20.139Z,15.27
2018-12-30T06:59:48.757Z,16.53
2018-12-30T07:02:18.126Z,13.17
2018-12-30T07:04:46.674Z,13.10
2018-12-30T07:07:15.229Z,12.57
2018-12-30T07:09:44.085Z,10.67
2018-12-30T07:12:12.719Z,16.93
2018-12-30T07:14:41.198Z,16.10
2018-12-30T07:17:09.787Z,19.33
2018-12-30T07:19:38.417Z,20.90
2018-12-30T07:22:06.988Z,14.97
2018-12-30T07:24:35.782Z,15.77
2018-12-30T07:27:04.398Z,11.73
2018-12-30T07:29:32.941Z,9.50
2018-12-30T07:32:01.793Z,12.80
2018-12-30T07:34:30.420Z,11.57
2018-12-30T07:36:58.967Z,14.73
2018-12-30T07:39:27.565Z,12.10
2018-12-30T07:41:56.127Z,18.07
2018-12-30T07:44:24.748Z,27.17
2018-12-30T07:46:53.641Z,28.17
2018-12-30T07:49:22.198Z,33.40
2018-12-30T07:51:50.748Z,34.83
2018-12-30T07:54:19.436Z,26.42
2018-12-30T07:56:47.989Z,24.67
2018-12-30T07:59:16.473Z,27.40
2018-12-30T08:01:45.076Z,23.93
2018-12-30T08:04:13.707Z,19.40
2018-12-30T08:06:42.273Z,20.80
2018-12-30T08:09:11.208Z,18.60
2018-12-30T08:11:39.764Z,27.60
2018-12-30T08:14:08.329Z,25.20
2018-12-30T08:16:37.243Z,26.57
2018-12-30T08:19:05.876Z,22.20
2018-12-30T08:21:34.436Z,26.57
2018-12-30T08:24:03.109Z,25.10
2018-12-30T08:26:31.658Z,20.72
2018-12-30T08:29:00.303Z,16.87
2018-12-30T08:31:29.279Z,22.42
2018-12-30T08:33:57.849Z,27.58
2018-12-30T08:36:26.477Z,18.80
2018-12-30T08:38:55.414Z,23.57
2018-12-30T08:41:24.063Z,30.68
2018-12-30T08:43:52.645Z,181.50
2018-12-30T08:46:21.484Z,49.87
2018-12-30T08:48:49.970Z,16.60
2018-12-30T08:51:18.535Z,21.35
2018-12-30T08:53:47.417Z,9.87
2018-12-30T08:56:15.970Z,24.50
2018-12-30T08:58:44.471Z,15.10
2018-12-30T09:01:13.287Z,15.15
2018-12-30T09:03:41.910Z,19.27
2018-12-30T09:06:10.535Z,16.57
2018-12-30T09:08:39.335Z,13.97
2018-12-30T09:11:07.885Z,16.73
2018-12-30T09:13:36.514Z,25.23
2018-12-30T09:16:05.396Z,11.63
2018-12-30T09:18:33.879Z,13.27
2018-12-30T09:21:02.448Z,16.80
2018-12-30T09:23:37.260Z,16.00
2018-12-30T09:26:01.351Z,14.35
2018-12-30T09:28:33.308Z,16.73
2018-12-30T09:31:01.855Z,15.90
2018-12-30T09:33:30.342Z,15.85
2018-12-30T09:35:58.986Z,16.10
2018-12-30T09:38:27.731Z,16.03
2018-12-30T09:40:56.295Z,17.65
2018-12-30T09:43:25.130Z,20.10
2018-12-30T09:45:53.680Z,17.92
2018-12-30T09:48:22.304Z,26.57
2018-12-30T09:50:50.875Z,23.80
2018-12-30T09:53:19.689Z,18.83
2018-12-30T09:55:48.235Z,19.23
2018-12-30T09:58:16.860Z,18.07
2018-12-30T10:00:45.529Z,19.03
2018-12-30T10:03:14.097Z,25.92
2018-12-30T10:05:42.681Z,27.23
2018-12-30T10:08:11.267Z,29.37
2018-12-30T10:10:39.828Z,23.73
2018-12-30T10:13:08.449Z,19.93
2018-12-30T10:15:37.235Z,19.77
2018-12-30T10:18:05.716Z,11.48
2018-12-30T10:20:34.334Z,13.18
2018-12-30T10:23:03.224Z,16.87
2018-12-30T10:25:31.787Z,14.80
2018-12-30T10:28:00.343Z,18.67
2018-12-30T10:30:29.226Z,19.65
2018-12-30T10:32:57.862Z,21.95
2018-12-30T10:35:26.481Z,14.63
2018-12-30T10:37:55.281Z,19.87
2018-12-30T10:40:23.833Z,17.07
2018-12-30T10:42:52.621Z,18.50
2018-12-30T10:45:21.456Z,27.43
2018-12-30T10:47:49.953Z,18.05
2018-12-30T10:50:18.588Z,14.47
2018-12-30T10:52:47.515Z,14.43
2018-12-30T10:55:16.097Z,22.37
2018-12-30T10:57:44.586Z,33.83
2018-12-30T11:00:13.562Z,23.37
2018-12-30T11:02:42.208Z,22.77
2018-12-30T11:05:10.827Z,30.30
2018-12-30T11:07:39.633Z,29.03
2018-12-30T11:10:08.356Z,41.30
2018-12-30T11:12:36.991Z,27.77
2018-12-30T11:15:06.344Z,20.40
2018-12-30T11:17:34.902Z,25.87
2018-12-30T11:20:03.529Z,22.58
2018-12-30T11:22:32.365Z,32.27
2018-12-30T11:25:00.909Z,28.15
2018-12-30T11:27:29.539Z,18.42
2018-12-30T11:29:58.223Z,24.63
2018-12-30T11:32:27.064Z,27.67
2018-12-30T11:34:55.619Z,20.40
2018-12-30T11:37:24.339Z,14.90
2018-12-30T11:39:52.971Z,38.10
2018-12-30T11:42:21.450Z,15.40
2018-12-30T11:44:50.304Z,18.40
2018-12-30T11:47:18.957Z,23.97
2018-12-30T11:49:47.585Z,29.25
2018-12-30T11:52:16.351Z,18.13
2018-12-30T11:54:44.909Z,17.93
2018-12-30T11:57:13.533Z,22.40
2018-12-30T11:59:42.220Z,19.17
2018-12-30T12:02:10.783Z,16.23
2018-12-30T12:04:39.334Z,20.50
2018-12-30T12:07:08.060Z,18.30
2018-12-30T12:09:36.626Z,22.83
2018-12-30T12:12:05.365Z,20.93
2018-12-30T12:14:34.221Z,22.17
2018-12-30T12:17:02.781Z,15.97
2018-12-30T12:19:31.351Z,20.93
2018-12-30T12:22:00.017Z,21.17
2018-12-30T12:24:28.591Z,24.75
2018-12-30T12:26:57.136Z,16.43
2018-12-30T12:29:26.026Z,26.07
2018-12-30T12:31:54.652Z,16.23
2018-12-30T12:34:23.222Z,19.73
2018-12-30T12:36:51.973Z,21.03
2018-12-30T12:39:20.524Z,15.90
2018-12-30T12:41:49.091Z,20.33
2018-12-30T12:44:18.033Z,19.00
2018-12-30T12:46:46.653Z,28.30
2018-12-30T12:49:15.297Z,26.23
2018-12-30T12:51:44.179Z,20.97
2018-12-30T12:54:12.737Z,17.52
2018-12-30T12:56:41.362Z,19.10
2018-12-30T12:59:10.120Z,19.42
2018-12-30T13:01:39.345Z,20.20
2018-12-30T13:04:07.966Z,35.85
2018-12-30T13:06:36.808Z,24.30
2018-12-30T13:09:06.652Z,26.00
2018-12-30T13:11:35.146Z,26.95
2018-12-30T13:14:03.998Z,27.70
2018-12-30T13:16:32.620Z,20.88
2018-12-30T13:19:01.196Z,25.90
2018-12-30T13:21:29.806Z,21.77
2018-12-30T13:23:58.357Z,18.33
2018-12-30T13:26:26.980Z,18.97
2018-12-30T13:28:55.721Z,20.70
2018-12-30T13:31:24.458Z,19.23
2018-12-30T13:33:53.027Z,27.20
2018-12-30T13:36:21.887Z,18.87
2018-12-30T13:38:50.510Z,35.20
2018-12-30T13:41:19.135Z,29.53
2018-12-30T13:43:47.795Z,17.13
2018-12-30T13:46:16.287Z,16.23
2018-12-30T13:48:44.837Z,17.07
2018-12-30T13:51:13.503Z,20.43
2018-12-30T13:53:42.140Z,14.20
2018-12-30T13:56:10.615Z,18.33
2018-12-30T13:58:39.504Z,19.10
2018-12-30T14:01:09.152Z,18.07
2018-12-30T14:03:37.788Z,17.93
2018-12-30T14:06:06.910Z,21.97
2018-12-30T14:08:35.410Z,26.67
2018-12-30T14:11:03.960Z,22.47
2018-12-30T14:13:32.974Z,28.77
2018-12-30T14:16:01.599Z,44.23
2018-12-30T14:18:30.157Z,37.20
2018-12-30T14:20:59.015Z,40.07
2018-12-30T14:23:27.634Z,39.67
2018-12-30T14:25:56.270Z,35.93
2018-12-30T14:28:24.859Z,31.97
2018-12-30T14:30:53.355Z,34.23
2018-12-30T14:33:21.993Z,35.40
2018-12-30T14:35:50.920Z,42.60
2018-12-30T14:38:19.491Z,45.83
2018-12-30T14:40:48.124Z,53.07
2018-12-30T14:43:16.693Z,48.83
2018-12-30T14:45:45.317Z,42.00
2018-12-30T14:48:13.961Z,43.80
2018-12-30T14:50:42.829Z,41.50
2018-12-30T14:53:19.088Z,44.90
2018-12-30T14:55:41.572Z,51.47
2018-12-30T14:58:10.240Z,57.77
2018-12-30T15:00:38.861Z,52.57
2018-12-30T15:03:07.463Z,47.60
2018-12-30T15:05:36.372Z,46.57
2018-12-30T15:08:05.021Z,47.40
2018-12-30T15:10:33.654Z,45.03
2018-12-30T15:13:02.236Z,43.93
2018-12-30T15:15:30.825Z,40.87
2018-12-30T15:17:59.446Z,37.67
2018-12-30T15:20:28.033Z,40.80
2018-12-30T15:22:56.660Z,29.40
2018-12-30T15:25:25.276Z,34.17
2018-12-30T15:27:54.166Z,37.20
2018-12-30T15:30:22.642Z,25.77
2018-12-30T15:32:51.274Z,28.80
2018-12-30T15:35:19.976Z,22.30
2018-12-30T15:37:48.634Z,30.60
2018-12-30T15:40:17.138Z,31.00
2018-12-30T15:42:45.792Z,33.77
2018-12-30T15:45:14.428Z,33.67
2018-12-30T15:47:43.060Z,29.73
2018-12-30T15:50:11.728Z,36.17
2018-12-30T15:52:40.382Z,40.03
2018-12-30T15:55:09.131Z,31.60
2018-12-30T15:57:37.948Z,38.33
2018-12-30T16:00:08.868Z,42.03
2018-12-30T16:02:37.544Z,38.00
2018-12-30T16:05:06.465Z,41.83
2018-12-30T16:07:34.954Z,49.03
2018-12-30T16:10:04.585Z,47.97
2018-12-30T16:12:33.650Z,53.53
2018-12-30T16:15:02.279Z,65.07
2018-12-30T16:17:30.829Z,63.70
2018-12-30T16:19:59.512Z,63.77
2018-12-30T16:22:28.146Z,48.47
2018-12-30T16:24:56.777Z,43.87
2018-12-30T16:27:25.295Z,39.33
2018-12-30T16:29:53.848Z,36.13
2018-12-30T16:32:22.484Z,42.87
2018-12-30T16:34:51.430Z,50.03
2018-12-30T16:37:19.985Z,42.77
2018-12-30T16:39:48.620Z,45.80
2018-12-30T16:42:17.452Z,44.03
2018-12-30T16:44:45.954Z,44.88
2018-12-30T16:47:14.582Z,44.07
2018-12-30T16:49:43.504Z,44.47
2018-12-30T16:52:11.998Z,50.77
2018-12-30T16:54:40.628Z,49.17
2018-12-30T16:57:09.600Z,53.60
2018-12-30T16:59:38.219Z,46.10
2018-12-30T17:02:06.788Z,45.10
2018-12-30T17:04:35.516Z,47.97
2018-12-30T17:07:04.138Z,42.83
2018-12-30T17:09:32.868Z,50.43
2018-12-30T17:12:01.402Z,48.40
2018-12-30T17:14:29.885Z,48.13
2018-12-30T17:16:59.632Z,44.97
2018-12-30T17:19:28.396Z,46.40
2018-12-30T17:21:57.024Z,47.87
2018-12-30T17:24:25.727Z,66.37
2018-12-30T17:26:54.461Z,69.60
2018-12-30T17:29:23.160Z,83.97
2018-12-30T17:31:51.839Z,76.07
2018-12-30T17:34:20.756Z,86.57
2018-12-30T17:36:49.312Z,76.63
2018-12-30T17:39:17.807Z,75.43
2018-12-30T17:41:46.712Z,74.67
2018-12-30T17:44:15.333Z,85.93
2018-12-30T17:46:43.816Z,80.23
2018-12-30T17:49:12.665Z,84.67
2018-12-30T17:51:41.302Z,95.60
2018-12-30T17:54:15.132Z,92.90
2018-12-30T17:56:40.448Z,108.27
2018-12-30T17:59:09.068Z,98.73
2018-12-30T18:01:37.639Z,115.60
2018-12-30T18:04:06.523Z,111.80
2018-12-30T18:06:35.148Z,102.80
2018-12-30T18:09:04.426Z,126.90
2018-12-30T18:11:32.972Z,124.50
2018-12-30T18:14:01.466Z,126.80
2018-12-30T18:16:30.112Z,132.00
2018-12-30T18:18:59.055Z,129.63
2018-12-30T18:21:27.539Z,133.00
2018-12-30T18:23:56.103Z,130.27
2018-12-30T18:26:24.999Z,116.33
2018-12-30T18:28:53.705Z,122.47
2018-12-30T18:31:22.270Z,126.40
2018-12-30T18:33:50.923Z,122.00
2018-12-30T18:36:19.559Z,93.97
2018-12-30T18:38:48.180Z,97.97
2018-12-30T18:41:16.927Z,105.50
2018-12-30T18:43:45.487Z,91.47
2018-12-30T18:46:14.130Z,105.07
2018-12-30T18:48:43.066Z,115.40
2018-12-30T18:51:11.711Z,122.57
2018-12-30T18:53:40.274Z,120.20
2018-12-30T18:56:09.057Z,127.90
2018-12-30T18:58:37.692Z,132.97
2018-12-30T19:01:06.315Z,116.07
2018-12-30T19:03:35.172Z,125.30
2018-12-30T19:06:03.799Z,118.97
2018-12-30T19:08:32.431Z,114.67
2018-12-30T19:11:01.334Z,109.43
2018-12-30T19:13:29.826Z,106.50
2018-12-30T19:15:58.448Z,99.60
2018-12-30T19:18:27.192Z,100.27
2018-12-30T19:20:55.825Z,105.23
2018-12-30T19:23:24.539Z,110.93
2018-12-30T19:26:00.880Z,103.27
2018-12-30T19:28:23.649Z,100.17
2018-12-30T19:30:52.284Z,89.00
2018-12-30T19:33:20.962Z,88.13
2018-12-30T19:35:49.441Z,96.00
2018-12-30T19:38:17.932Z,93.70
2018-12-30T19:40:46.899Z,96.30
2018-12-30T19:43:15.533Z,101.33
2018-12-30T19:45:44.017Z,102.27
2018-12-30T19:48:12.859Z,92.47
2018-12-30T19:50:41.502Z,101.23
2018-12-30T19:53:10.120Z,89.13
2018-12-30T19:55:38.767Z,75.87
2018-12-30T19:58:07.396Z,80.23
2018-12-30T20:00:36.018Z,77.90
2018-12-30T20:03:04.882Z,64.20
2018-12-30T20:05:33.516Z,63.80
2018-12-30T20:08:02.192Z,60.77
2018-12-30T20:10:38.223Z,58.03
2018-12-30T20:13:09.075Z,56.67
2018-12-30T20:15:37.104Z,58.00
2018-12-30T20:18:05.727Z,60.53
2018-12-30T20:20:34.345Z,50.67
2018-12-30T20:23:02.921Z,27.83
2018-12-30T20:25:31.546Z,30.17
2018-12-30T20:28:00.170Z,23.10
2018-12-30T20:30:28.663Z,27.77
2018-12-30T20:32:57.143Z,22.87
2018-12-30T20:35:25.809Z,25.43
2018-12-30T20:37:54.313Z,21.67
2018-12-30T20:40:22.933Z,21.67
2018-12-30T20:42:51.610Z,25.90
2018-12-30T20:45:20.090Z,26.40
2018-12-30T20:47:48.643Z,30.20
2018-12-30T20:50:17.569Z,30.13
2018-12-30T20:52:46.314Z,36.70
2018-12-30T20:55:14.812Z,41.10
2018-12-30T20:57:43.641Z,49.77
2018-12-30T21:00:12.737Z,58.70
2018-12-30T21:02:41.361Z,67.43
2018-12-30T21:05:10.187Z,71.20
2018-12-30T21:07:38.734Z,72.40
2018-12-30T21:10:08.179Z,89.03
2018-12-30T21:12:36.850Z,65.53
2018-12-30T21:15:06.516Z,71.90
2018-12-30T21:17:35.007Z,79.47
2018-12-30T21:20:03.919Z,89.60
2018-12-30T21:22:32.561Z,78.63
2018-12-30T21:25:01.052Z,55.70
2018-12-30T21:27:29.808Z,55.27
2018-12-30T21:29:58.428Z,59.93
2018-12-30T21:32:27.116Z,57.17
2018-12-30T21:34:55.850Z,47.43
2018-12-30T21:37:24.340Z,45.83
2018-12-30T21:39:53.037Z,38.20
2018-12-30T21:42:21.984Z,35.23
2018-12-30T21:44:50.478Z,36.13
2018-12-30T21:47:18.963Z,42.97
2018-12-30T21:49:47.632Z,40.43
2018-12-30T21:52:16.267Z,39.90
2018-12-30T21:54:44.828Z,46.00
2018-12-30T21:57:13.691Z,38.13
2018-12-30T21:59:42.171Z,39.90
2018-12-30T22:02:10.724Z,45.27
2018-12-30T22:04:39.535Z,41.87
2018-12-30T22:07:08.154Z,38.43
2018-12-30T22:09:36.648Z,48.53
2018-12-30T22:12:05.562Z,47.63
2018-12-30T22:14:34.194Z,43.70
2018-12-30T22:17:02.814Z,55.33
2018-12-30T22:19:31.659Z,53.23
2018-12-30T22:22:00.161Z,45.20
2018-12-30T22:24:28.795Z,43.73
2018-12-30T22:26:57.812Z,60.03
2018-12-30T22:29:26.365Z,39.67
2018-12-30T22:31:54.920Z,46.37
2018-12-30T22:34:23.872Z,69.60
2018-12-30T22:36:52.364Z,78.33
2018-12-30T22:39:20.997Z,59.93
2018-12-30T22:41:49.944Z,58.73
2018-12-30T22:44:18.422Z,56.93
2018-12-30T22:46:46.986Z,53.93
2018-12-30T22:49:15.619Z,38.53
2018-12-30T22:51:44.244Z,44.57
2018-12-30T22:54:13.041Z,43.00
2018-12-30T22:56:41.598Z,38.33
2018-12-30T22:59:10.225Z,40.00
2018-12-30T23:01:39.211Z,45.73
2018-12-30T23:04:07.710Z,36.50
2018-12-30T23:06:36.248Z,37.67
2018-12-30T23:09:06.896Z,36.67
2018-12-30T23:11:35.511Z,33.97
2018-12-30T23:14:04.080Z,36.63
2018-12-30T23:16:32.743Z,43.23
2018-12-30T23:19:01.232Z,33.67
2018-12-30T23:21:29.781Z,30.80
2018-12-30T23:23:58.705Z,35.43
2018-12-30T23:26:27.336Z,26.10
2018-12-30T23:28:55.841Z,23.70
2018-12-30T23:31:24.795Z,20.73
2018-12-30T23:33:53.408Z,22.30
2018-12-30T23:36:22.043Z,21.97
2018-12-30T23:38:50.599Z,22.90
2018-12-30T23:41:19.163Z,24.63
2018-12-30T23:43:48.083Z,21.97
2018-12-30T23:46:16.720Z,25.30
2018-12-30T23:48:45.272Z,27.13
2018-12-30T23:51:14.137Z,30.20
2018-12-30T23:53:42.767Z,28.60
2018-12-30T23:56:11.261Z,23.67
2018-12-30T23:58:40.201Z,25.50
